createdAt,value
2022-12-29T00:00:21.603Z,1.77
2022-12-29T00:02:48.730Z,1.52
2022-12-29T00:05:16.129Z,1.45
2022-12-29T00:07:43.028Z,1.70
2022-12-29T00:10:10.502Z,1.25
2022-12-29T00:12:56.676Z,1.50
2022-12-29T00:15:39.428Z,2.15
2022-12-29T00:18:07.129Z,1.45
2022-12-29T00:20:56.990Z,1.20
2022-12-29T00:23:56.757Z,1.40
2022-12-29T00:26:42.364Z,1.65
2022-12-29T00:29:28.641Z,1.30
2022-12-29T00:32:14.093Z,1.10
2022-12-29T00:34:59.424Z,1.40
2022-12-29T00:37:46.961Z,1.42
2022-12-29T00:40:32.625Z,1.40
2022-12-29T00:43:19.448Z,1.27
2022-12-29T00:45:46.239Z,1.40
2022-12-29T00:48:14.017Z,1.40
2022-12-29T00:50:40.954Z,1.45
2022-12-29T00:53:13.037Z,1.20
2022-12-29T00:55:40.378Z,1.25
2022-12-29T00:58:07.339Z,1.40
2022-12-29T01:00:34.146Z,1.55
2022-12-29T01:03:08.081Z,1.60
2022-12-29T01:05:37.702Z,1.30
2022-12-29T01:08:12.054Z,1.20
2022-12-29T01:10:38.909Z,1.10
2022-12-29T01:13:12.152Z,1.30
2022-12-29T01:15:39.097Z,1.23
2022-12-29T01:18:06.004Z,1.58
2022-12-29T01:20:32.777Z,1.38
2022-12-29T01:22:59.606Z,1.10
2022-12-29T01:25:26.403Z,1.23
2022-12-29T01:27:53.273Z,1.10
2022-12-29T01:30:20.104Z,1.52
2022-12-29T01:32:46.911Z,1.13
2022-12-29T01:35:13.805Z,1.13
2022-12-29T01:37:40.974Z,0.90
2022-12-29T01:40:08.470Z,1.10
2022-12-29T01:42:35.875Z,1.05
2022-12-29T01:45:13.382Z,0.90
2022-12-29T01:47:43.617Z,1.08
2022-12-29T01:50:12.906Z,1.00
2022-12-29T01:52:43.530Z,1.27
2022-12-29T01:55:11.600Z,0.80
2022-12-29T01:57:39.933Z,0.80
2022-12-29T02:00:09.520Z,0.80
2022-12-29T02:02:37.370Z,0.88
2022-12-29T02:05:43.761Z,1.00
2022-12-29T02:08:20.282Z,0.80
2022-12-29T02:10:48.851Z,0.77
2022-12-29T02:13:22.284Z,1.00
2022-12-29T02:15:55.856Z,0.85
2022-12-29T02:18:27.416Z,0.80
2022-12-29T02:21:18.320Z,0.80
2022-12-29T02:23:45.748Z,0.70
2022-12-29T02:26:24.147Z,0.88
2022-12-29T02:29:01.106Z,0.88
2022-12-29T02:31:48.789Z,0.85
2022-12-29T02:34:16.297Z,0.90
2022-12-29T02:37:09.109Z,1.25
2022-12-29T02:39:53.047Z,1.23
2022-12-29T02:42:35.679Z,0.90
2022-12-29T02:45:19.439Z,0.85
2022-12-29T02:47:46.926Z,0.95
2022-12-29T02:50:29.853Z,1.00
2022-12-29T02:53:00.679Z,0.95
2022-12-29T02:55:28.265Z,1.48
2022-12-29T02:58:17.221Z,1.00
2022-12-29T03:00:50.962Z,1.17
2022-12-29T03:03:23.666Z,1.05
2022-12-29T03:06:18.388Z,1.13
2022-12-29T03:09:00.856Z,1.00
2022-12-29T03:11:51.862Z,0.90
2022-12-29T03:14:47.948Z,1.02
2022-12-29T03:17:22.774Z,1.13
2022-12-29T03:19:55.126Z,1.15
2022-12-29T03:22:32.597Z,1.30
2022-12-29T03:25:03.206Z,1.00
2022-12-29T03:27:41.355Z,1.20
2022-12-29T03:30:10.120Z,1.10
2022-12-29T03:32:44.367Z,0.95
2022-12-29T03:35:16.911Z,1.08
2022-12-29T03:37:51.968Z,1.05
2022-12-29T03:40:20.729Z,1.10
2022-12-29T03:42:49.012Z,0.93
2022-12-29T03:45:18.344Z,1.02
2022-12-29T03:47:45.883Z,1.10
2022-12-29T03:50:19.075Z,1.08
2022-12-29T03:52:46.655Z,0.98
2022-12-29T03:55:14.508Z,1.10
2022-12-29T03:57:41.980Z,0.90
2022-12-29T04:00:14.838Z,1.02
2022-12-29T04:02:42.372Z,1.15
2022-12-29T04:05:18.967Z,1.10
2022-12-29T04:07:46.337Z,1.27
2022-12-29T04:10:16.219Z,1.20
2022-12-29T04:12:43.993Z,1.20
2022-12-29T04:15:18.232Z,1.17
2022-12-29T04:17:45.915Z,1.20
2022-12-29T04:20:31.952Z,1.30
2022-12-29T04:23:09.436Z,1.23
2022-12-29T04:25:36.832Z,1.20
2022-12-29T04:28:11.335Z,1.00
2022-12-29T04:30:38.788Z,0.95
2022-12-29T04:33:12.185Z,1.27
2022-12-29T04:35:39.941Z,0.90
2022-12-29T04:38:14.176Z,0.90
2022-12-29T04:40:42.663Z,1.13
2022-12-29T04:43:18.239Z,1.00
2022-12-29T04:45:46.611Z,1.20
2022-12-29T04:48:14.547Z,0.98
2022-12-29T04:50:42.203Z,0.95
2022-12-29T04:53:16.252Z,0.90
2022-12-29T04:55:43.696Z,0.95
2022-12-29T04:58:11.051Z,1.00
2022-12-29T05:00:38.438Z,0.98
2022-12-29T05:03:12.393Z,1.00
2022-12-29T05:05:39.862Z,1.50
2022-12-29T05:08:12.678Z,0.98
2022-12-29T05:10:41.095Z,1.00
2022-12-29T05:13:15.223Z,1.15
2022-12-29T05:15:42.641Z,0.80
2022-12-29T05:18:16.298Z,1.50
2022-12-29T05:20:43.656Z,0.90
2022-12-29T05:23:17.304Z,0.88
2022-12-29T05:25:46.846Z,1.33
2022-12-29T05:28:14.610Z,1.13
2022-12-29T05:30:42.140Z,1.00
2022-12-29T05:33:12.846Z,1.20
2022-12-29T05:35:40.329Z,0.98
2022-12-29T05:38:07.733Z,1.70
2022-12-29T05:40:42.502Z,1.10
2022-12-29T05:43:16.240Z,0.80
2022-12-29T05:45:43.631Z,1.25
2022-12-29T05:48:11.179Z,1.30
2022-12-29T05:50:38.573Z,1.20
2022-12-29T05:53:06.050Z,1.10
2022-12-29T05:55:33.378Z,1.30
2022-12-29T05:58:00.710Z,1.40
2022-12-29T06:00:28.257Z,0.90
2022-12-29T06:02:55.780Z,0.90
2022-12-29T06:05:23.592Z,0.98
2022-12-29T06:07:50.997Z,1.20
2022-12-29T06:10:18.775Z,1.20
2022-12-29T06:12:46.340Z,1.00
2022-12-29T06:15:16.019Z,1.38
2022-12-29T06:17:45.636Z,1.00
2022-12-29T06:20:19.201Z,1.13
2022-12-29T06:22:47.679Z,1.00
2022-12-29T06:25:15.406Z,1.35
2022-12-29T06:27:43.127Z,1.10
2022-12-29T06:30:13.457Z,1.25
2022-12-29T06:32:40.991Z,1.33
2022-12-29T06:35:12.199Z,1.10
2022-12-29T06:37:39.723Z,1.40
2022-12-29T06:40:07.594Z,1.52
2022-12-29T06:42:34.954Z,1.10
2022-12-29T06:45:11.310Z,1.20
2022-12-29T06:47:41.247Z,1.73
2022-12-29T06:50:15.299Z,1.30
2022-12-29T06:52:42.962Z,1.27
2022-12-29T06:55:10.510Z,1.45
2022-12-29T06:57:37.949Z,1.20
2022-12-29T07:00:06.270Z,1.00
2022-12-29T07:02:34.705Z,1.40
2022-12-29T07:05:16.997Z,1.58
2022-12-29T07:07:44.915Z,1.45
2022-12-29T07:10:19.323Z,1.40
2022-12-29T07:12:49.959Z,1.40
2022-12-29T07:15:21.303Z,1.48
2022-12-29T07:17:50.857Z,1.73
2022-12-29T07:20:23.189Z,1.20
2022-12-29T07:23:23.152Z,1.80
2022-12-29T07:26:14.707Z,2.05
2022-12-29T07:29:16.193Z,1.48
2022-12-29T07:32:03.917Z,1.30
2022-12-29T07:34:31.542Z,1.70
2022-12-29T07:36:59.129Z,1.50
2022-12-29T07:39:49.937Z,1.52
2022-12-29T07:43:10.343Z,1.48
2022-12-29T07:45:47.576Z,1.45
2022-12-29T07:48:21.397Z,1.40
2022-12-29T07:50:51.592Z,1.50
2022-12-29T07:53:30.960Z,1.48
2022-12-29T07:56:01.903Z,1.60
2022-12-29T07:58:29.322Z,1.67
2022-12-29T08:04:20.178Z,1.40
2022-12-29T08:06:47.760Z,1.42
2022-12-29T08:09:21.970Z,1.65
2022-12-29T08:11:55.467Z,1.67
2022-12-29T08:14:25.342Z,1.40
2022-12-29T08:16:52.876Z,1.33
2022-12-29T08:19:20.320Z,1.70
2022-12-29T08:21:50.571Z,1.65
2022-12-29T08:24:21.876Z,1.15
2022-12-29T08:29:38.745Z,1.65
2022-12-29T08:32:22.502Z,1.70
2022-12-29T08:34:59.692Z,1.80
2022-12-29T08:37:31.392Z,1.55
2022-12-29T08:40:25.481Z,1.60
2022-12-29T08:43:01.672Z,1.63
2022-12-29T08:45:29.210Z,1.80
2022-12-29T08:48:02.903Z,1.80
2022-12-29T08:50:30.470Z,2.17
2022-12-29T08:52:57.817Z,1.73
2022-12-29T08:55:27.723Z,1.50
2022-12-29T08:57:55.104Z,1.80
2022-12-29T09:00:22.897Z,2.03
2022-12-29T09:02:55.854Z,1.52
2022-12-29T09:05:23.409Z,1.67
2022-12-29T09:07:59.807Z,1.35
2022-12-29T09:13:16.495Z,1.50
2022-12-29T09:16:40.041Z,1.52
2022-12-29T09:19:18.195Z,1.70
2022-12-29T09:22:05.926Z,1.50
2022-12-29T09:31:35.468Z,1.50
2022-12-29T09:34:02.837Z,2.17
2022-12-29T09:36:30.075Z,1.60
2022-12-29T09:38:57.323Z,1.50
2022-12-29T09:41:27.977Z,1.77
2022-12-29T09:44:01.237Z,1.83
2022-12-29T09:46:29.724Z,1.45
2022-12-29T09:49:07.052Z,1.33
2022-12-29T09:51:34.656Z,1.40
2022-12-29T09:54:04.723Z,1.10
2022-12-29T09:56:32.096Z,0.80
2022-12-29T09:59:17.773Z,0.70
2022-12-29T10:02:08.147Z,0.77
2022-12-29T10:04:35.508Z,0.70
2022-12-29T10:07:29.129Z,0.80
2022-12-29T10:10:02.418Z,0.70
2022-12-29T10:12:40.293Z,0.90
2022-12-29T10:15:32.049Z,1.20
2022-12-29T10:18:08.448Z,0.95
2022-12-29T10:20:56.194Z,0.90
2022-12-29T10:23:32.877Z,0.90
2022-12-29T10:26:01.732Z,0.80
2022-12-29T10:28:45.029Z,0.63
2022-12-29T10:31:18.249Z,0.75
2022-12-29T10:33:45.509Z,0.63
2022-12-29T10:36:36.083Z,1.00
2022-12-29T10:39:16.038Z,0.63
2022-12-29T10:41:46.334Z,0.60
2022-12-29T10:44:16.417Z,0.60
2022-12-29T10:46:44.537Z,1.00
2022-12-29T10:49:21.570Z,0.75
2022-12-29T10:51:52.426Z,0.80
2022-12-29T10:54:22.567Z,0.80
2022-12-29T10:57:02.036Z,0.60
2022-12-29T10:59:33.416Z,0.60
2022-12-29T11:02:06.881Z,0.70
2022-12-29T11:04:54.532Z,0.50
2022-12-29T11:07:26.964Z,0.50
2022-12-29T11:09:55.076Z,0.50
2022-12-29T11:12:25.171Z,0.40
2022-12-29T11:15:11.046Z,0.73
2022-12-29T11:17:49.489Z,0.60
2022-12-29T11:20:29.371Z,0.77
2022-12-29T11:22:56.741Z,0.70
2022-12-29T11:25:23.974Z,0.57
2022-12-29T11:27:58.251Z,0.60
2022-12-29T11:30:27.198Z,0.60
2022-12-29T11:32:55.164Z,0.82
2022-12-29T11:35:37.492Z,0.50
2022-12-29T11:38:05.993Z,0.93
2022-12-29T11:40:35.270Z,0.52
2022-12-29T11:43:03.948Z,0.70
2022-12-29T11:45:33.662Z,1.15
2022-12-29T11:48:03.234Z,0.70
2022-12-29T11:50:32.552Z,0.55
2022-12-29T11:53:01.519Z,0.60
2022-12-29T11:55:29.615Z,0.60
2022-12-29T11:57:59.098Z,0.65
2022-12-29T12:00:27.789Z,0.82
2022-12-29T12:02:57.933Z,0.60
2022-12-29T12:05:28.327Z,0.90
2022-12-29T12:08:01.744Z,0.60
2022-12-29T12:10:31.928Z,0.90
2022-12-29T12:13:14.036Z,0.65
2022-12-29T12:15:50.065Z,0.70
2022-12-29T12:18:27.594Z,0.70
2022-12-29T12:21:21.173Z,0.70
2022-12-29T12:24:00.483Z,1.00
2022-12-29T12:26:44.494Z,0.73
2022-12-29T12:29:20.563Z,0.85
2022-12-29T12:31:51.485Z,0.93
2022-12-29T12:34:28.868Z,1.05
2022-12-29T12:37:15.072Z,0.70
2022-12-29T12:40:00.876Z,1.02
2022-12-29T12:42:35.074Z,0.90
2022-12-29T12:45:21.063Z,0.60
2022-12-29T12:47:51.317Z,0.85
2022-12-29T12:50:23.243Z,0.85
2022-12-29T12:53:17.182Z,0.60
2022-12-29T12:56:02.976Z,0.90
2022-12-29T12:58:51.137Z,1.10
2022-12-29T13:01:31.283Z,1.02
2022-12-29T13:04:01.545Z,0.68
2022-12-29T13:06:36.096Z,1.33
2022-12-29T13:09:16.096Z,0.73
2022-12-29T13:11:55.744Z,0.60
2022-12-29T13:14:43.064Z,0.70
2022-12-29T13:17:18.468Z,0.80
2022-12-29T13:19:51.936Z,0.98
2022-12-29T13:22:28.291Z,0.80
2022-12-29T13:24:55.516Z,0.73
2022-12-29T13:27:37.433Z,0.93
2022-12-29T13:30:05.311Z,1.05
2022-12-29T13:32:51.599Z,0.70
2022-12-29T13:35:48.371Z,0.70
2022-12-29T13:38:24.879Z,0.90
2022-12-29T13:40:54.860Z,0.68
2022-12-29T13:43:23.048Z,0.80
2022-12-29T13:45:55.670Z,0.80
2022-12-29T13:48:25.568Z,0.90
2022-12-29T13:50:57.882Z,0.70
2022-12-29T13:53:43.998Z,0.57
2022-12-29T13:56:15.008Z,0.80
2022-12-29T13:58:42.223Z,0.80
2022-12-29T14:01:18.075Z,0.60
2022-12-29T14:03:56.252Z,0.60
2022-12-29T14:06:27.731Z,0.80
2022-12-29T14:08:56.441Z,0.70
2022-12-29T14:11:25.872Z,0.80
2022-12-29T14:13:53.564Z,0.70
2022-12-29T14:16:31.543Z,0.50
2022-12-29T14:19:06.256Z,0.50
2022-12-29T14:21:34.429Z,1.17
2022-12-29T14:24:20.659Z,0.95
2022-12-29T14:26:48.002Z,0.80
2022-12-29T14:29:27.683Z,0.50
2022-12-29T14:31:55.277Z,0.80
2022-12-29T14:34:22.564Z,0.70
2022-12-29T14:36:57.356Z,0.88
2022-12-29T14:39:31.074Z,0.70
2022-12-29T14:42:06.182Z,0.60
2022-12-29T14:44:33.911Z,0.60
2022-12-29T14:47:03.288Z,0.50
2022-12-29T14:49:32.784Z,0.70
2022-12-29T14:52:20.155Z,0.70
2022-12-29T14:54:52.893Z,0.55
2022-12-29T14:57:44.124Z,0.80
2022-12-29T15:00:24.713Z,0.50
2022-12-29T15:03:16.777Z,1.10
2022-12-29T15:06:09.197Z,0.50
2022-12-29T15:08:58.280Z,0.70
2022-12-29T15:11:49.526Z,0.60
2022-12-29T15:14:30.937Z,1.05
2022-12-29T15:16:58.335Z,0.90
2022-12-29T15:19:27.248Z,0.65
2022-12-29T15:21:55.935Z,0.50
2022-12-29T15:24:23.394Z,1.15
2022-12-29T15:26:53.031Z,0.60
2022-12-29T15:29:43.824Z,0.40
2022-12-29T15:32:16.721Z,0.50
2022-12-29T15:34:44.779Z,0.80
2022-12-29T15:37:28.768Z,0.57
2022-12-29T15:39:56.904Z,0.88
2022-12-29T15:43:09.552Z,0.77
2022-12-29T15:45:37.056Z,0.80
2022-12-29T15:48:05.789Z,0.60
2022-12-29T15:50:35.224Z,0.40
2022-12-29T15:53:03.583Z,0.90
2022-12-29T15:55:39.473Z,0.50
2022-12-29T15:58:25.073Z,0.82
2022-12-29T16:00:55.116Z,0.50
2022-12-29T16:03:23.831Z,0.63
2022-12-29T16:05:56.932Z,0.50
2022-12-29T16:08:41.060Z,0.70
2022-12-29T16:11:33.624Z,0.60
2022-12-29T16:14:02.131Z,0.50
2022-12-29T16:16:36.423Z,0.40
2022-12-29T16:19:22.779Z,0.50
2022-12-29T16:21:49.884Z,0.38
2022-12-29T16:24:27.032Z,0.50
2022-12-29T16:27:08.612Z,0.57
2022-12-29T16:29:36.324Z,0.50
2022-12-29T16:32:04.343Z,0.70
2022-12-29T16:34:48.308Z,0.50
2022-12-29T16:37:34.382Z,0.70
2022-12-29T16:40:23.196Z,0.65
2022-12-29T16:42:52.534Z,0.82
2022-12-29T16:45:19.473Z,0.70
2022-12-29T16:47:58.440Z,0.60
2022-12-29T16:50:28.587Z,0.55
2022-12-29T16:52:55.771Z,1.00
2022-12-29T16:55:22.776Z,0.60
2022-12-29T16:57:54.123Z,0.70
2022-12-29T17:00:26.516Z,0.65
2022-12-29T17:02:58.852Z,0.70
2022-12-29T17:05:26.089Z,0.70
2022-12-29T17:07:53.936Z,0.90
2022-12-29T17:10:20.860Z,1.13
2022-12-29T17:12:49.484Z,0.90
2022-12-29T17:15:26.817Z,0.90
2022-12-29T17:17:56.667Z,0.80
2022-12-29T17:20:29.729Z,1.00
2022-12-29T17:22:58.121Z,1.33
2022-12-29T17:25:34.656Z,1.08
2022-12-29T17:28:08.296Z,0.85
2022-12-29T17:30:36.246Z,0.90
2022-12-29T17:33:06.501Z,0.80
2022-12-29T17:35:33.491Z,0.93
2022-12-29T17:38:00.825Z,0.77
2022-12-29T17:40:29.824Z,0.70
2022-12-29T17:42:58.910Z,1.00
2022-12-29T17:45:28.151Z,1.30
2022-12-29T17:47:56.076Z,0.82
2022-12-29T17:50:25.889Z,1.10
2022-12-29T17:53:00.609Z,0.90
2022-12-29T17:55:34.794Z,0.93
2022-12-29T17:58:21.423Z,0.93
2022-12-29T18:00:49.953Z,0.80
2022-12-29T18:03:33.191Z,0.57
2022-12-29T18:06:00.530Z,0.90
2022-12-29T18:08:29.457Z,0.85
2022-12-29T18:10:57.090Z,0.73
2022-12-29T18:13:35.719Z,1.00
2022-12-29T18:16:10.764Z,0.70
2022-12-29T18:18:38.319Z,0.77
2022-12-29T18:21:05.198Z,0.82
2022-12-29T18:23:35.342Z,0.90
2022-12-29T18:26:15.507Z,0.93
2022-12-29T18:28:43.372Z,1.00
2022-12-29T18:31:21.026Z,1.10
2022-12-29T18:33:49.428Z,0.90
2022-12-29T18:36:17.153Z,1.40
2022-12-29T18:38:44.951Z,1.00
2022-12-29T18:41:23.719Z,0.98
2022-12-29T18:43:51.593Z,1.20
2022-12-29T18:46:22.655Z,1.25
2022-12-29T18:48:51.354Z,1.15
2022-12-29T18:51:23.512Z,1.35
2022-12-29T18:53:53.108Z,1.50
2022-12-29T18:56:21.072Z,1.05
2022-12-29T18:58:47.974Z,1.67
2022-12-29T19:01:22.016Z,1.05
2022-12-29T19:03:49.668Z,1.00
2022-12-29T19:06:16.740Z,1.00
2022-12-29T19:08:43.596Z,1.20
2022-12-29T19:11:10.637Z,0.70
2022-12-29T19:13:37.463Z,0.65
2022-12-29T19:16:04.494Z,0.75
2022-12-29T19:18:43.693Z,0.70
2022-12-29T19:21:11.879Z,0.70
2022-12-29T19:23:38.694Z,0.60
2022-12-29T19:26:05.968Z,0.80
2022-12-29T19:28:32.843Z,1.10
2022-12-29T19:31:01.771Z,0.60
2022-12-29T19:33:29.539Z,0.70
2022-12-29T19:36:02.067Z,0.80
2022-12-29T19:38:29.630Z,0.80
2022-12-29T19:40:56.822Z,0.73
2022-12-29T19:43:23.638Z,0.70
2022-12-29T19:45:51.489Z,1.05
2022-12-29T19:48:20.077Z,0.50
2022-12-29T19:50:47.957Z,0.60
2022-12-29T19:53:15.169Z,0.80
2022-12-29T19:55:44.113Z,1.00
2022-12-29T19:58:12.051Z,0.90
2022-12-29T20:00:43.854Z,0.82
2022-12-29T20:03:11.931Z,0.70
2022-12-29T20:05:40.351Z,0.70
2022-12-29T20:08:07.211Z,0.68
2022-12-29T20:10:34.630Z,0.70
2022-12-29T20:13:01.650Z,0.50
2022-12-29T20:15:28.618Z,0.52
2022-12-29T20:18:17.575Z,0.73
2022-12-29T20:20:53.913Z,0.80
2022-12-29T20:23:21.405Z,0.80
2022-12-29T20:25:57.418Z,0.88
2022-12-29T20:28:30.782Z,1.10
2022-12-29T20:31:00.603Z,0.95
2022-12-29T20:33:32.399Z,0.82
2022-12-29T20:36:15.481Z,1.10
2022-12-29T20:38:44.078Z,1.05
2022-12-29T20:41:12.606Z,1.15
2022-12-29T20:43:40.669Z,1.10
2022-12-29T20:46:08.640Z,1.23
2022-12-29T20:48:35.905Z,1.10
2022-12-29T20:51:02.957Z,1.00
2022-12-29T20:53:32.617Z,1.00
2022-12-29T20:56:06.800Z,1.05
2022-12-29T20:58:47.155Z,1.00
2022-12-29T21:01:24.496Z,1.10
2022-12-29T21:03:52.660Z,1.42
2022-12-29T21:06:23.557Z,1.15
2022-12-29T21:08:52.692Z,0.90
2022-12-29T21:11:21.838Z,1.08
2022-12-29T21:13:49.372Z,0.82
2022-12-29T21:16:19.062Z,0.88
2022-12-29T21:18:45.936Z,0.93
2022-12-29T21:21:18.749Z,1.08
2022-12-29T21:23:46.511Z,0.90
2022-12-29T21:26:22.088Z,0.90
2022-12-29T21:28:49.555Z,1.50
2022-12-29T21:31:28.225Z,1.20
2022-12-29T21:33:56.116Z,1.17
2022-12-29T21:36:23.574Z,0.95
2022-12-29T21:38:50.445Z,2.80
2022-12-29T21:41:17.917Z,1.17
2022-12-29T21:44:05.776Z,1.48
2022-12-29T21:46:34.373Z,1.23
2022-12-29T21:49:01.393Z,1.17
2022-12-29T21:51:47.045Z,1.15
2022-12-29T21:54:32.451Z,1.20
2022-12-29T21:56:59.510Z,1.30
2022-12-29T21:59:44.984Z,1.40
2022-12-29T22:02:36.929Z,1.15
2022-12-29T22:05:24.574Z,1.30
2022-12-29T22:08:10.494Z,1.48
2022-12-29T22:11:00.672Z,1.20
2022-12-29T22:13:28.111Z,1.23
2022-12-29T22:15:54.950Z,1.50
2022-12-29T22:18:21.894Z,1.00
2022-12-29T22:20:49.716Z,1.17
2022-12-29T22:23:16.618Z,1.00
2022-12-29T22:25:44.607Z,1.05
2022-12-29T22:28:11.908Z,1.40
2022-12-29T22:30:38.767Z,0.90
2022-12-29T22:33:05.672Z,1.33
2022-12-29T22:35:32.461Z,1.05
2022-12-29T22:37:59.400Z,1.15
2022-12-29T22:40:26.219Z,1.15
2022-12-29T22:42:53.081Z,1.00
2022-12-29T22:45:19.949Z,0.93
2022-12-29T22:47:46.803Z,1.13
2022-12-29T22:50:13.701Z,0.90
2022-12-29T22:52:40.499Z,1.48
2022-12-29T22:55:08.529Z,1.13
2022-12-29T22:57:36.420Z,0.98
2022-12-29T23:00:08.118Z,1.05
2022-12-29T23:02:35.473Z,2.10
2022-12-29T23:05:08.321Z,1.05
2022-12-29T23:07:36.075Z,0.82
2022-12-29T23:10:04.662Z,1.08
2022-12-29T23:12:31.733Z,1.23
2022-12-29T23:14:58.836Z,0.90
2022-12-29T23:17:25.929Z,0.90
2022-12-29T23:19:53.167Z,1.20
2022-12-29T23:22:20.802Z,1.00
2022-12-29T23:24:47.608Z,0.88
2022-12-29T23:27:17.572Z,1.05
2022-12-29T23:29:44.316Z,0.95
2022-12-29T23:32:15.765Z,1.00
2022-12-29T23:34:42.652Z,1.33
2022-12-29T23:37:15.832Z,1.05
2022-12-29T23:39:42.600Z,1.17
2022-12-29T23:42:09.407Z,1.35
2022-12-29T23:44:36.245Z,1.05
2022-12-29T23:47:09.845Z,1.20
2022-12-29T23:49:36.714Z,0.80
2022-12-29T23:52:09.783Z,1.00
2022-12-29T23:54:36.507Z,0.82
2022-12-29T23:57:09.806Z,0.85
2022-12-29T23:59:36.652Z,1.13
